Time;durP1;ratioP1;P1;durP2;ratioP2;P2;SDS_P1;SDS_P2;PMS_P1;PMS_P2;Temp;Humidity;BMP_temperature;BMP_pressure;BME280_temperature;BME280_humidity;BME280_pressure;Samples;Min_cycle;Max_cycle;Signal;HPM_P1;HPM_P2
2023/07/16 00:00:08;;;;;;;13.48;8.88;;;;;;;22.62;100.00;100207.34;5552904;32;33392;-61
2023/07/16 00:03:11;;;;;;;11.48;9.10;;;;;;;22.61;100.00;100211.13;5552533;32;34603;-61
2023/07/16 00:06:14;;;;;;;12.02;8.85;;;;;;;22.50;100.00;100200.19;5552743;32;34563;-61
2023/07/16 00:09:17;;;;;;;12.57;8.50;;;;;;;22.57;100.00;100209.97;5552445;32;33591;-60
2023/07/16 00:12:20;;;;;;;9.55;8.25;;;;;;;22.57;100.00;100210.78;5539091;32;33525;-61
2023/07/16 00:15:23;;;;;;;12.00;8.63;;;;;;;22.59;100.00;100210.56;5552165;32;33741;-61
2023/07/16 00:18:26;;;;;;;9.80;8.18;;;;;;;22.50;100.00;100215.59;5552305;32;34085;-61
2023/07/16 00:21:29;;;;;;;11.88;8.70;;;;;;;22.50;100.00;100207.47;5538169;32;33682;-61
2023/07/16 00:24:32;;;;;;;9.73;8.30;;;;;;;22.39;100.00;100211.91;5549981;32;33833;-61
2023/07/16 00:27:35;;;;;;;14.50;8.85;;;;;;;22.30;100.00;100213.41;5548390;32;34927;-61
2023/07/16 00:30:38;;;;;;;10.50;8.80;;;;;;;22.21;100.00;100214.91;5548572;32;33845;-61
2023/07/16 00:33:42;;;;;;;10.13;8.70;;;;;;;22.16;100.00;100209.44;5548612;32;33794;-61
2023/07/16 00:36:45;;;;;;;12.40;8.90;;;;;;;22.05;100.00;100215.72;5548931;32;34014;-61
2023/07/16 00:39:48;;;;;;;9.63;8.40;;;;;;;22.00;100.00;100212.94;5548533;32;33773;-61
2023/07/16 00:42:51;;;;;;;12.37;8.27;;;;;;;22.00;100.00;100211.06;5548859;32;33746;-61
2023/07/16 00:45:54;;;;;;;15.88;8.43;;;;;;;21.94;100.00;100211.22;5548334;32;33851;-62
2023/07/16 00:48:57;;;;;;;15.55;8.30;;;;;;;21.92;100.00;100214.16;5534756;32;33925;-61
2023/07/16 00:52:01;;;;;;;12.48;8.57;;;;;;;22.03;100.00;100204.34;5534753;32;33353;-61
2023/07/16 00:55:06;;;;;;;11.38;8.38;;;;;;;22.11;100.00;100209.34;5548568;32;32252;-61
2023/07/16 00:58:09;;;;;;;14.52;8.73;;;;;;;22.07;100.00;100211.69;5548302;32;34079;-61
2023/07/16 01:01:13;;;;;;;11.10;8.30;;;;;;;22.09;100.00;100203.34;5534540;32;34638;-61
2023/07/16 01:04:16;;;;;;;13.05;8.38;;;;;;;21.99;100.00;100198.62;5534676;32;34561;-61
2023/07/16 01:07:23;;;;;;;10.68;8.75;;;;;;;21.98;100.00;100190.75;5548278;32;34869;-61
2023/07/16 01:10:29;;;;;;;;;;;;;;;22.02;100.00;100187.34;5535220;32;34305;-61
2023/07/16 01:13:33;;;;;;;10.32;8.38;;;;;;;21.82;100.00;100194.28;5534638;32;34598;-61
2023/07/16 01:16:36;;;;;;;15.85;8.57;;;;;;;21.74;100.00;100191.97;5534586;32;34456;-61
2023/07/16 01:19:42;;;;;;;10.52;8.30;;;;;;;21.77;100.00;100189.59;5548126;32;34525;-61
2023/07/16 01:23:03;;;;;;;11.55;8.68;;;;;;;21.73;100.00;100190.34;5548086;32;34614;-61
2023/07/16 01:26:39;;;;;;;10.43;8.57;;;;;;;21.65;100.00;100184.28;5548105;32;34222;-61
2023/07/16 01:29:58;;;;;;;11.07;8.60;;;;;;;21.78;100.00;100185.03;5534232;32;34074;-61
2023/07/16 01:33:03;;;;;;;11.37;8.50;;;;;;;21.68;100.00;100188.38;5548233;32;33631;-61
2023/07/16 01:36:08;;;;;;;9.85;8.23;;;;;;;21.74;100.00;100198.19;5533991;32;34705;-61
2023/07/16 01:39:11;;;;;;;14.07;8.82;;;;;;;21.69;100.00;100188.12;5548054;32;33810;-61
2023/07/16 01:42:14;;;;;;;11.18;8.20;;;;;;;21.60;100.00;100188.75;5548008;32;31942;-61
2023/07/16 01:45:17;;;;;;;8.98;8.05;;;;;;;21.64;100.00;100184.50;5547764;32;34250;-61
2023/07/16 01:48:35;;;;;;;12.15;7.32;;;;;;;21.61;100.00;100183.13;5521654;32;33789;-61
2023/07/16 01:51:38;;;;;;;16.20;7.82;;;;;;;21.62;100.00;100187.47;5534524;32;34443;-61
2023/07/16 01:54:41;;;;;;;9.82;7.60;;;;;;;21.56;100.00;100190.31;5548005;32;32965;-62
2023/07/16 01:57:44;;;;;;;11.43;7.75;;;;;;;21.51;100.00;100185.66;5547837;32;34805;-62
2023/07/16 02:00:49;;;;;;;8.68;7.78;;;;;;;21.48;100.00;100186.16;5547774;32;34717;-61
2023/07/16 02:03:52;;;;;;;11.68;7.90;;;;;;;21.51;100.00;100187.53;5547797;32;33807;-61
2023/07/16 02:06:55;;;;;;;14.95;7.50;;;;;;;21.48;100.00;100186.16;5547755;32;33791;-61
2023/07/16 02:09:58;;;;;;;9.50;7.28;;;;;;;21.47;100.00;100184.50;5534123;32;33639;-61
2023/07/16 02:13:01;;;;;;;10.35;7.20;;;;;;;21.34;100.00;100181.31;5547810;32;34488;-61
2023/07/16 02:16:04;;;;;;;14.02;7.82;;;;;;;21.35;100.00;100182.94;5548098;32;33541;-61
2023/07/16 02:19:07;;;;;;;11.00;7.70;;;;;;;21.24;100.00;100185.47;5534297;32;33907;-61
2023/07/16 02:22:10;;;;;;;9.52;7.50;;;;;;;21.27;100.00;100183.31;5547650;32;34511;-62
2023/07/16 02:25:13;;;;;;;9.48;7.45;;;;;;;21.34;100.00;100175.91;5547559;32;34956;-62
2023/07/16 02:28:16;;;;;;;15.05;7.85;;;;;;;21.30;100.00;100177.47;5547560;32;34326;-62
2023/07/16 02:31:19;;;;;;;10.82;7.75;;;;;;;21.17;100.00;100184.78;5547358;32;34870;-61
2023/07/16 02:34:22;;;;;;;8.38;6.87;;;;;;;21.01;100.00;100179.31;5547528;32;34212;-61
2023/07/16 02:37:25;;;;;;;8.70;6.70;;;;;;;20.96;100.00;100176.53;5533877;32;33900;-62
2023/07/16 02:40:27;;;;;;;9.50;6.97;;;;;;;21.06;100.00;100182.91;5547505;32;33976;-61
2023/07/16 02:43:31;;;;;;;8.95;6.40;;;;;;;21.16;100.00;100183.13;5547325;32;33799;-62
2023/07/16 02:46:34;;;;;;;11.98;6.80;;;;;;;21.21;100.00;100179.72;5547397;32;33849;-61
2023/07/16 02:49:38;;;;;;;11.20;6.82;;;;;;;21.27;100.00;100183.31;5546597;32;32283;-62
2023/07/16 02:52:41;;;;;;;16.42;7.50;;;;;;;21.23;100.00;100183.81;5547132;32;33989;-62
2023/07/16 02:55:45;;;;;;;11.95;7.03;;;;;;;21.24;100.00;100185.47;5547591;32;33561;-61
2023/07/16 02:58:48;;;;;;;9.32;6.80;;;;;;;21.16;100.00;100185.00;5547243;32;33155;-61
2023/07/16 03:01:51;;;;;;;7.97;6.45;;;;;;;21.07;100.00;100186.44;5546936;32;35441;-61
2023/07/16 03:04:54;;;;;;;11.23;6.78;;;;;;;21.03;100.00;100182.59;5547064;32;33513;-61
2023/07/16 03:07:59;;;;;;;19.45;6.60;;;;;;;21.02;100.00;100183.63;5547067;32;34361;-61
2023/07/16 03:11:02;;;;;;;12.43;6.25;;;;;;;20.93;100.00;100185.06;5533158;32;34270;-61
2023/07/16 03:14:06;;;;;;;8.23;6.70;;;;;;;20.84;100.00;100184.66;5547022;32;34068;-62
2023/07/16 03:17:09;;;;;;;10.90;6.65;;;;;;;20.91;100.00;100189.91;5546997;32;33249;-62
2023/07/16 03:20:13;;;;;;;9.00;6.53;;;;;;;20.90;100.00;100193.66;5533289;32;33636;-62
2023/07/16 03:23:16;;;;;;;10.55;7.05;;;;;;;20.94;100.00;100198.34;5547248;32;33804;-62
2023/07/16 03:26:19;;;;;;;9.55;6.80;;;;;;;21.03;100.00;100204.16;5546762;32;35547;-64
2023/07/16 03:29:23;;;;;;;8.55;6.97;;;;;;;21.01;100.00;100201.69;5547078;32;33895;-62
2023/07/16 03:32:27;;;;;;;9.15;6.43;;;;;;;21.01;100.00;100203.59;5546529;32;34408;-63
2023/07/16 03:35:48;;;;;;;7.12;6.03;;;;;;;20.99;100.00;100211.91;5535044;32;33893;-62
2023/07/16 03:38:53;;;;;;;9.55;5.97;;;;;;;21.06;100.00;100209.06;5546589;32;34261;-62
2023/07/16 03:41:56;;;;;;;12.80;6.28;;;;;;;21.03;100.00;100207.69;5546695;32;33143;-63
2023/07/16 03:44:59;;;;;;;9.25;5.90;;;;;;;21.06;100.00;100217.97;5546399;32;34462;-62
2023/07/16 03:48:02;;;;;;;9.38;6.00;;;;;;;21.11;100.00;100219.94;5546784;32;35304;-63
2023/07/16 03:51:05;;;;;;;12.07;5.90;;;;;;;21.15;100.00;100222.00;5532731;32;33204;-63
2023/07/16 03:54:08;;;;;;;11.15;5.95;;;;;;;21.19;100.00;100227.72;5546380;32;33743;-62
2023/07/16 03:57:11;;;;;;;6.80;5.35;;;;;;;21.25;100.00;100234.84;5546293;32;33501;-62
2023/07/16 04:00:14;;;;;;;10.60;5.50;;;;;;;21.19;100.00;100230.41;5534407;32;34879;-62
2023/07/16 04:03:16;;;;;;;7.53;5.40;;;;;;;21.26;100.00;100228.38;5548810;32;35024;-62
2023/07/16 04:06:19;;;;;;;8.38;5.40;;;;;;;21.23;100.00;100232.38;5549247;32;34605;-63
2023/07/16 04:09:22;;;;;;;8.30;5.62;;;;;;;21.24;100.00;100239.44;5548959;32;34418;-63
2023/07/16 04:12:25;;;;;;;8.38;5.55;;;;;;;21.21;100.00;100237.19;5548672;32;34922;-63
2023/07/16 04:15:28;;;;;;;6.90;5.12;;;;;;;21.34;100.00;100237.97;5548903;32;33956;-63
2023/07/16 04:18:31;;;;;;;10.18;5.20;;;;;;;21.51;100.00;100238.81;5535183;32;34576;-62
2023/07/16 04:21:35;;;;;;;7.20;5.20;;;;;;;21.57;100.00;100235.97;5548990;32;34545;-63
2023/07/16 04:24:38;;;;;;;7.45;5.43;;;;;;;21.64;100.00;100243.91;5534534;32;33948;-63
2023/07/16 04:27:42;;;;;;;6.05;5.05;;;;;;;21.70;100.00;100237.53;5529507;32;33666;-63
2023/07/16 04:30:45;;;;;;;11.43;5.20;;;;;;;21.58;100.00;100253.81;5515833;32;34520;-63
2023/07/16 04:33:48;;;;;;;13.07;6.30;;;;;;;21.70;100.00;100253.75;5529582;32;34683;-63
2023/07/16 04:36:51;;;;;;;9.85;5.28;;;;;;;21.78;100.00;100239.03;5515727;32;33684;-63
2023/07/16 04:39:54;;;;;;;7.80;5.28;;;;;;;21.86;100.00;100252.12;5529254;32;33863;-63
2023/07/16 04:42:57;;;;;;;8.85;5.35;;;;;;;21.90;100.00;100254.09;5529291;32;34793;-63
2023/07/16 04:46:00;;;;;;;8.07;5.30;;;;;;;21.95;100.00;100253.38;5529197;32;33926;-63
2023/07/16 04:49:05;;;;;;;9.40;5.22;;;;;;;22.02;100.00;100254.88;5529267;32;34055;-62
2023/07/16 04:52:08;;;;;;;9.95;5.37;;;;;;;22.21;100.00;100254.63;5529422;32;34812;-63
2023/07/16 04:55:13;;;;;;;14.32;5.10;;;;;;;22.29;100.00;100256.91;5529225;32;33552;-63
2023/07/16 04:58:16;;;;;;;10.95;5.40;;;;;;;22.30;100.00;100253.13;5529125;32;33582;-62
2023/07/16 05:01:20;;;;;;;8.73;5.12;;;;;;;22.46;100.00;100263.91;5528803;32;33894;-62
2023/07/16 05:04:23;;;;;;;7.18;5.25;;;;;;;22.48;100.00;100269.91;5528975;32;33748;-62
2023/07/16 05:07:26;;;;;;;6.97;4.70;;;;;;;22.50;100.00;100269.66;5529122;32;33537;-63
2023/07/16 05:10:29;;;;;;;10.88;5.03;;;;;;;22.47;100.00;100273.66;5528796;32;33768;-62
2023/07/16 05:13:32;;;;;;;12.18;5.00;;;;;;;22.61;100.00;100276.03;5515729;32;33585;-62
2023/07/16 05:16:35;;;;;;;9.35;4.90;;;;;;;22.50;100.00;100283.19;5528985;32;34432;-62
2023/07/16 05:19:38;;;;;;;6.55;5.07;;;;;;;22.51;100.00;100284.81;5502698;32;34306;-63
2023/07/16 05:22:44;;;;;;;7.03;4.95;;;;;;;22.46;100.00;100282.81;5534276;32;34363;-63
2023/07/16 05:25:48;;;;;;;6.55;4.87;;;;;;;22.68;100.00;100285.59;5531043;32;33731;-62
2023/07/16 05:28:52;;;;;;;9.95;5.35;;;;;;;22.69;100.00;100281.00;5529500;32;33829;-62
2023/07/16 05:31:56;;;;;;;12.30;4.93;;;;;;;22.84;100.00;100270.44;5547856;32;34089;-62
2023/07/16 05:35:02;;;;;;;9.45;5.40;;;;;;;22.88;100.00;100266.16;5546763;32;34036;-62
2023/07/16 05:38:07;;;;;;;8.20;5.10;;;;;;;22.88;100.00;100269.66;5534281;32;33936;-64
2023/07/16 05:41:10;;;;;;;12.30;5.35;;;;;;;22.78;100.00;100274.13;5547990;32;33646;-62
2023/07/16 05:44:13;;;;;;;5.70;4.90;;;;;;;23.07;100.00;100274.75;5547847;32;34132;-62
2023/07/16 05:47:15;;;;;;;10.18;5.12;;;;;;;23.19;100.00;100275.47;5546953;32;33895;-63
2023/07/16 05:50:19;;;;;;;7.87;4.40;;;;;;;23.35;100.00;100274.56;5547679;32;34000;-62
2023/07/16 05:53:21;;;;;;;8.43;4.47;;;;;;;23.59;100.00;100270.50;5547766;32;35260;-63
2023/07/16 05:56:24;;;;;;;8.13;5.03;;;;;;;23.71;100.00;100262.22;5546941;32;34897;-63
2023/07/16 05:59:27;;;;;;;11.00;5.25;;;;;;;23.83;100.00;100269.12;5546225;32;33820;-63
2023/07/16 06:02:31;;;;;;;13.90;5.12;;;;;;;23.77;100.00;100269.31;5548176;32;33940;-63
2023/07/16 06:05:34;;;;;;;9.48;4.80;;;;;;;23.84;100.00;100269.94;5547698;32;34388;-63
2023/07/16 06:08:37;;;;;;;11.80;4.75;;;;;;;24.02;100.00;100282.28;5547902;32;33320;-63
2023/07/16 06:11:40;;;;;;;7.62;4.75;;;;;;;24.14;100.00;100282.94;5547488;32;33563;-62
2023/07/16 06:14:43;;;;;;;6.37;4.72;;;;;;;24.32;100.00;100285.25;5546826;32;34557;-62
2023/07/16 06:17:46;;;;;;;10.60;4.65;;;;;;;24.40;100.00;100290.19;5545731;32;34580;-62
2023/07/16 06:20:50;;;;;;;14.57;4.82;;;;;;;24.51;100.00;100282.94;5546448;32;34109;-62
2023/07/16 06:23:53;;;;;;;6.80;4.50;;;;;;;24.43;100.00;100278.03;5546340;32;33794;-61
2023/07/16 06:26:56;;;;;;;12.32;4.78;;;;;;;24.75;100.00;100286.88;5547455;32;33561;-62
2023/07/16 06:29:59;;;;;;;8.73;4.70;;;;;;;24.86;100.00;100293.19;5532519;32;35134;-62
2023/07/16 06:33:02;;;;;;;11.75;4.50;;;;;;;24.74;100.00;100295.31;5547757;32;33544;-62
2023/07/16 06:36:05;;;;;;;7.80;4.37;;;;;;;24.94;100.00;100296.25;5547170;32;33767;-61
2023/07/16 06:39:08;;;;;;;11.77;4.60;;;;;;;24.99;100.00;100293.56;5534168;32;34883;-61
2023/07/16 06:42:11;;;;;;;13.70;5.10;;;;;;;25.16;100.00;100289.84;5534271;32;34463;-62
2023/07/16 06:45:13;;;;;;;5.93;4.10;;;;;;;25.40;100.00;100296.44;5547434;32;33659;-61
2023/07/16 06:48:17;;;;;;;11.12;4.40;;;;;;;25.55;100.00;100285.66;5547538;32;33878;-62
2023/07/16 06:51:20;;;;;;;8.65;4.45;;;;;;;25.73;100.00;100284.31;5546849;32;33733;-62
2023/07/16 06:54:24;;;;;;;10.38;4.40;;;;;;;25.89;100.00;100286.78;5533745;32;33387;-62
2023/07/16 06:57:26;;;;;;;7.85;4.12;;;;;;;25.93;100.00;100284.34;5546290;32;33974;-62
2023/07/16 07:00:29;;;;;;;10.52;4.32;;;;;;;26.02;97.47;100284.59;5533227;32;33870;-62
2023/07/16 07:03:35;;;;;;;8.98;4.57;;;;;;;26.13;95.96;100284.34;5547084;32;33648;-61
2023/07/16 07:06:38;;;;;;;10.75;4.57;;;;;;;26.26;91.47;100283.81;5533412;32;34163;-62
2023/07/16 07:09:41;;;;;;;9.13;4.28;;;;;;;26.35;91.46;100279.44;5533406;32;33794;-62
2023/07/16 07:12:44;;;;;;;9.10;4.55;;;;;;;26.56;89.21;100282.13;5546651;32;34316;-61
2023/07/16 07:15:49;;;;;;;7.62;4.12;;;;;;;26.76;86.54;100271.22;5546222;32;34025;-62
2023/07/16 07:18:52;;;;;;;13.32;4.25;;;;;;;27.22;84.82;100266.41;5546461;32;33918;-62
2023/07/16 07:21:56;;;;;;;12.27;4.20;;;;;;;27.36;79.09;100272.03;5546780;32;33788;-62
2023/07/16 07:24:59;;;;;;;6.72;4.30;;;;;;;27.72;77.89;100264.50;5546864;32;34229;-62
2023/07/16 07:28:03;;;;;;;10.65;3.90;;;;;;;27.67;78.17;100273.53;5546234;32;34796;-63
2023/07/16 07:31:06;;;;;;;7.53;4.43;;;;;;;28.36;72.53;100269.72;5546273;32;34577;-62
2023/07/16 07:34:09;;;;;;;7.62;4.03;;;;;;;28.52;70.82;100271.19;5533310;32;35103;-62
2023/07/16 07:37:12;;;;;;;9.07;3.60;;;;;;;28.97;69.95;100269.06;5548404;32;34123;-63
2023/07/16 07:40:15;;;;;;;11.57;3.78;;;;;;;29.99;64.11;100275.59;5548709;32;33883;-62
2023/07/16 07:43:18;;;;;;;5.90;3.37;;;;;;;30.80;61.44;100279.59;5548671;32;34853;-64
2023/07/16 07:46:21;;;;;;;6.28;3.80;;;;;;;31.23;60.00;100274.63;5548231;32;33801;-60
2023/07/16 07:49:24;;;;;;;7.28;3.50;;;;;;;31.13;57.60;100263.09;5534815;32;33892;-62
2023/07/16 07:52:27;;;;;;;8.80;3.47;;;;;;;31.05;58.44;100270.09;5548314;32;33878;-61
2023/07/16 07:55:30;;;;;;;8.57;3.70;;;;;;;32.25;53.67;100262.91;5535151;32;33641;-61
2023/07/16 07:58:33;;;;;;;6.95;3.35;;;;;;;32.18;54.44;100269.97;5548057;32;32768;-62
2023/07/16 08:01:37;;;;;;;5.20;3.42;;;;;;;32.09;53.96;100263.59;5535293;32;33145;-61
2023/07/16 08:04:39;;;;;;;5.87;3.50;;;;;;;31.44;55.90;100266.78;5548515;32;33423;-61
2023/07/16 08:07:42;;;;;;;6.93;3.65;;;;;;;31.49;55.76;100253.75;5534652;32;33602;-61
2023/07/16 08:10:46;;;;;;;9.40;3.35;;;;;;;33.43;49.91;100259.31;5548617;32;34014;-62
2023/07/16 08:13:49;;;;;;;14.05;3.50;;;;;;;34.10;48.30;100267.06;5534637;32;33813;-62
2023/07/16 08:16:52;;;;;;;4.85;3.30;;;;;;;33.92;48.32;100257.22;5534994;32;34393;-62
2023/07/16 08:19:55;;;;;;;10.10;3.53;;;;;;;34.03;46.49;100259.28;5547028;32;33778;-62
2023/07/16 08:22:58;;;;;;;10.50;3.33;;;;;;;34.92;44.51;100260.31;5548420;32;34159;-62
2023/07/16 08:26:01;;;;;;;9.80;3.53;;;;;;;35.25;43.51;100258.50;5534885;32;33907;-62
2023/07/16 08:29:04;;;;;;;15.35;3.47;;;;;;;35.82;42.62;100255.16;5548173;32;33372;-62
2023/07/16 08:32:07;;;;;;;8.55;3.05;;;;;;;36.60;39.86;100252.34;5548332;32;34551;-62
2023/07/16 08:35:16;;;;;;;7.15;2.47;;;;;;;35.37;39.88;100248.69;5548583;32;32116;-62
2023/07/16 08:38:18;;;;;;;7.22;2.80;;;;;;;36.79;37.51;100246.31;5548171;32;34255;-63
2023/07/16 08:41:22;;;;;;;6.97;2.85;;;;;;;37.30;35.59;100253.87;5546249;32;34462;-64
2023/07/16 08:44:25;;;;;;;6.18;2.83;;;;;;;37.62;36.02;100246.50;5518742;32;35472;-62
2023/07/16 08:47:28;;;;;;;5.03;2.58;;;;;;;38.19;35.21;100248.94;5513388;32;34282;-63
2023/07/16 08:50:33;;;;;;;3.67;2.50;;;;;;;38.92;34.16;100251.19;5526210;32;33858;-62
2023/07/16 08:53:36;;;;;;;6.70;2.87;;;;;;;37.95;34.46;100239.94;5514999;32;34231;-63
2023/07/16 08:56:39;;;;;;;5.22;2.37;;;;;;;37.92;34.43;100235.88;5528763;32;33670;-63
2023/07/16 08:59:44;;;;;;;6.53;2.97;;;;;;;37.58;36.10;100237.31;5528152;32;34531;-62
2023/07/16 09:02:47;;;;;;;4.50;3.03;;;;;;;38.68;34.03;100240.28;5528814;32;33841;-63
2023/07/16 09:05:50;;;;;;;9.63;3.37;;;;;;;39.02;33.45;100241.50;5528898;32;34948;-62
2023/07/16 09:08:53;;;;;;;5.97;2.90;;;;;;;39.68;33.28;100241.38;5515195;32;34037;-63
2023/07/16 09:11:56;;;;;;;6.60;2.80;;;;;;;39.64;32.71;100246.06;5527993;32;34678;-62
2023/07/16 09:15:04;;;;;;;8.52;3.30;;;;;;;40.34;31.67;100238.28;5528855;32;33890;-63
2023/07/16 09:18:19;;;;;;;;;;;;;;;40.16;31.58;100245.47;5529172;32;33568;-63
2023/07/16 09:21:22;;;;;;;6.85;3.70;;;;;;;39.63;34.17;100244.44;5528746;32;34236;-64
2023/07/16 09:24:25;;;;;;;8.30;4.00;;;;;;;38.06;35.05;100233.53;5528497;32;33821;-63
2023/07/16 09:27:29;;;;;;;10.18;4.10;;;;;;;39.13;33.26;100245.31;5528460;32;33619;-62
2023/07/16 09:30:33;;;;;;;7.10;3.87;;;;;;;39.53;33.14;100242.25;5527861;32;34874;-64
2023/07/16 09:33:36;;;;;;;10.45;3.90;;;;;;;39.67;33.39;100236.16;5528437;32;34829;-63
2023/07/16 09:36:39;;;;;;;7.68;3.90;;;;;;;38.64;34.33;100229.09;5515223;32;34317;-63
2023/07/16 09:39:42;;;;;;;6.22;4.00;;;;;;;39.65;34.25;100239.31;5514880;32;33923;-63
2023/07/16 09:42:46;;;;;;;9.10;3.60;;;;;;;41.43;30.87;100232.00;5528564;32;34337;-62
2023/07/16 09:45:49;;;;;;;6.85;3.35;;;;;;;41.24;30.55;100238.53;5541485;32;34353;-63
2023/07/16 09:48:52;;;;;;;5.72;3.65;;;;;;;41.31;30.99;100235.81;5534415;32;33767;-62
2023/07/16 09:51:57;;;;;;;6.45;3.78;;;;;;;40.67;31.90;100231.28;5545579;32;33826;-63
2023/07/16 09:55:04;;;;;;;11.45;4.30;;;;;;;41.76;30.69;100223.66;5528379;32;33589;-63
2023/07/16 09:58:10;;;;;;;8.27;4.18;;;;;;;42.06;29.05;100229.19;5534799;32;33852;-63
2023/07/16 10:01:14;;;;;;;9.57;4.32;;;;;;;39.85;32.06;100238.16;5547652;32;34445;-63
2023/07/16 10:04:19;;;;;;;9.20;4.85;;;;;;;40.41;31.62;100215.34;5547761;32;33707;-63
2023/07/16 10:07:26;;;;;;;5.95;4.18;;;;;;;40.65;31.63;100228.91;5547758;32;33684;-62
2023/07/16 10:10:53;;;;;;;6.62;4.05;;;;;;;41.18;30.22;100228.88;5547593;32;34851;-63
2023/07/16 10:13:56;;;;;;;;;;;;;;;42.11;28.83;100222.44;5548070;32;33574;-63
2023/07/16 10:17:02;;;;;;;7.93;4.50;;;;;;;42.24;28.81;100223.75;5547900;32;33817;-62
2023/07/16 10:20:09;;;;;;;7.95;4.95;;;;;;;41.62;29.41;100215.94;5547836;32;33594;-62
2023/07/16 10:23:15;;;;;;;9.85;4.70;;;;;;;38.97;33.23;100214.81;5534297;32;33548;-62
2023/07/16 10:26:18;;;;;;;7.57;4.78;;;;;;;39.82;33.47;100213.09;5547834;32;34405;-62
2023/07/16 10:29:22;;;;;;;9.20;4.72;;;;;;;40.57;31.82;100210.44;5546787;32;33929;-63
2023/07/16 10:32:34;;;;;;;10.50;4.55;;;;;;;41.73;29.72;100207.72;5534098;32;33927;-62
2023/07/16 10:35:41;;;;;;;6.97;4.50;;;;;;;43.84;27.38;100212.38;5544112;32;33597;-63
2023/07/16 10:38:44;;;;;;;8.25;4.72;;;;;;;43.13;27.74;100209.34;5547541;32;34000;-62
2023/07/16 10:41:47;;;;;;;8.13;4.70;;;;;;;42.05;27.97;100213.63;5533829;32;33960;-62
2023/07/16 10:44:54;;;;;;;8.63;4.70;;;;;;;42.58;27.77;100205.75;5547581;32;33856;-63
2023/07/16 10:47:57;;;;;;;;;;;;;;;43.72;26.83;100202.38;5547131;32;34520;-62
2023/07/16 10:50:59;;;;;;;12.45;5.03;;;;;;;43.00;27.46;100199.63;5532460;32;34833;-62
2023/07/16 10:54:05;;;;;;;10.02;4.70;;;;;;;41.74;29.22;100200.13;5533627;32;34477;-62
2023/07/16 10:57:08;;;;;;;5.55;4.40;;;;;;;42.28;28.98;100189.16;5547251;32;33712;-64
2023/07/16 11:00:12;;;;;;;10.00;4.30;;;;;;;42.27;27.98;100190.34;5547257;32;33820;-63
2023/07/16 11:03:16;;;;;;;7.15;4.75;;;;;;;43.14;26.94;100183.00;5546778;32;33866;-62
2023/07/16 11:06:20;;;;;;;7.70;4.32;;;;;;;43.73;26.27;100194.78;5520913;32;34054;-62
2023/07/16 11:09:23;;;;;;;7.15;4.37;;;;;;;42.15;27.36;100190.63;5546665;32;33905;-63
2023/07/16 11:12:26;;;;;;;5.82;4.18;;;;;;;43.07;26.78;100188.56;5546838;32;34591;-65
2023/07/16 11:15:35;;;;;;;10.93;4.75;;;;;;;44.14;25.77;100186.88;5547055;32;33595;-63
2023/07/16 11:18:38;;;;;;;5.68;3.78;;;;;;;42.93;27.12;100180.09;5533415;32;33792;-64
2023/07/16 11:21:41;;;;;;;5.45;4.18;;;;;;;41.79;27.72;100194.22;5533375;32;33970;-63
2023/07/16 11:24:50;;;;;;;6.15;3.80;;;;;;;43.26;27.56;100190.22;5533441;32;33705;-63
2023/07/16 11:27:56;;;;;;;11.95;3.90;;;;;;;43.64;27.09;100184.00;5546780;32;34363;-63
2023/07/16 11:31:14;;;;;;;6.50;3.87;;;;;;;44.22;25.04;100176.50;5533273;32;33835;-63
2023/07/16 11:34:19;;;;;;;7.68;3.97;;;;;;;44.20;24.85;100182.50;5546619;32;33708;-62
2023/07/16 11:37:24;;;;;;;8.13;3.80;;;;;;;46.28;22.75;100182.94;5546627;32;33727;-62
2023/07/16 11:40:27;;;;;;;7.78;3.60;;;;;;;46.34;24.06;100180.44;5532635;32;33750;-62
2023/07/16 11:43:39;;;;;;;7.45;3.60;;;;;;;44.89;23.73;100173.63;5532637;32;33801;-63
2023/07/16 11:46:46;;;;;;;6.82;3.92;;;;;;;46.36;22.17;100170.41;5532887;32;33450;-62
2023/07/16 11:49:50;;;;;;;7.20;3.60;;;;;;;46.87;22.06;100182.72;5546448;32;34569;-63
2023/07/16 11:52:54;;;;;;;7.65;4.05;;;;;;;44.34;24.73;100164.94;5532435;32;34139;-62
2023/07/16 11:55:57;;;;;;;6.05;3.75;;;;;;;45.50;23.16;100172.22;5545685;32;33825;-62
2023/07/16 11:59:00;;;;;;;10.32;3.87;;;;;;;46.25;21.83;100167.72;5546486;32;33662;-62
2023/07/16 12:02:03;;;;;;;12.02;3.95;;;;;;;45.65;22.32;100168.12;5546344;32;34017;-62
2023/07/16 12:05:06;;;;;;;7.80;3.87;;;;;;;44.40;24.04;100160.50;5546306;32;34462;-62
2023/07/16 12:08:13;;;;;;;6.45;3.90;;;;;;;43.56;24.60;100170.41;5532567;32;33613;-63
2023/07/16 12:11:17;;;;;;;7.12;3.50;;;;;;;43.99;24.26;100172.09;5545937;32;33804;-63
2023/07/16 12:14:20;;;;;;;5.90;3.67;;;;;;;43.29;25.44;100165.09;5545393;32;34134;-62
2023/07/16 12:17:23;;;;;;;7.78;3.58;;;;;;;44.26;23.88;100168.91;5545860;32;33709;-63
2023/07/16 12:20:27;;;;;;;7.22;3.47;;;;;;;45.15;23.53;100163.97;5546893;32;33516;-64
2023/07/16 12:23:30;;;;;;;8.18;3.53;;;;;;;44.69;23.95;100166.91;5548594;32;33999;-63
2023/07/16 12:26:33;;;;;;;10.38;3.70;;;;;;;46.37;22.29;100163.59;5548906;32;33971;-63
2023/07/16 12:29:36;;;;;;;9.25;3.05;;;;;;;45.68;22.28;100161.69;5534073;32;33870;-62
2023/07/16 12:32:39;;;;;;;6.90;3.45;;;;;;;45.80;22.11;100161.22;5534983;32;33265;-63
2023/07/16 12:35:43;;;;;;;7.95;3.30;;;;;;;45.01;23.23;100160.00;5548034;32;33601;-63
2023/07/16 12:38:45;;;;;;;5.53;3.30;;;;;;;41.01;27.80;100148.69;5548834;32;33732;-63
2023/07/16 12:41:49;;;;;;;6.55;3.50;;;;;;;40.73;28.77;100149.13;5548267;32;33761;-63
2023/07/16 12:44:52;;;;;;;7.95;3.30;;;;;;;42.77;25.76;100151.69;5534913;32;34427;-63
2023/07/16 12:47:56;;;;;;;8.23;3.20;;;;;;;44.94;23.90;100151.63;5548297;32;33823;-63
2023/07/16 12:50:59;;;;;;;6.30;3.00;;;;;;;46.11;22.02;100153.78;5548707;32;33696;-63
2023/07/16 12:54:02;;;;;;;9.13;3.05;;;;;;;46.38;21.89;100153.97;5548594;32;34567;-64
2023/07/16 12:57:05;;;;;;;8.10;3.12;;;;;;;46.75;21.50;100158.03;5535159;32;34513;-64
2023/07/16 13:00:10;;;;;;;9.20;3.20;;;;;;;47.43;20.42;100161.63;5534949;32;34881;-62
2023/07/16 13:03:16;;;;;;;5.90;2.97;;;;;;;47.70;20.53;100162.44;5548620;32;34530;-63
2023/07/16 13:06:19;;;;;;;6.13;3.10;;;;;;;43.41;24.41;100160.34;5548360;32;33740;-62
2023/07/16 13:09:22;;;;;;;5.75;3.10;;;;;;;43.68;25.56;100158.84;5548397;32;33584;-63
2023/07/16 13:12:26;;;;;;;4.93;2.75;;;;;;;45.09;22.63;100160.00;5548101;32;33976;-63
2023/07/16 13:15:29;;;;;;;8.32;3.10;;;;;;;46.85;22.07;100160.72;5548224;32;34567;-63
2023/07/16 13:18:32;;;;;;;6.22;3.20;;;;;;;46.09;22.34;100158.22;5548048;32;34363;-64
2023/07/16 13:21:35;;;;;;;7.45;3.20;;;;;;;47.16;21.24;100155.91;5534583;32;34275;-63
2023/07/16 13:24:38;;;;;;;9.60;3.58;;;;;;;48.18;20.54;100161.28;5534517;32;34750;-64
2023/07/16 13:27:41;;;;;;;7.15;3.08;;;;;;;47.15;21.14;100156.38;5547913;32;34140;-63
2023/07/16 13:30:44;;;;;;;9.50;3.67;;;;;;;45.90;22.35;100159.56;5548380;32;34005;-63
2023/07/16 13:33:47;;;;;;;7.15;3.45;;;;;;;42.26;27.08;100160.84;5533648;32;34024;-63
2023/07/16 13:36:50;;;;;;;11.75;3.70;;;;;;;40.56;28.99;100150.47;5534423;32;32525;-63
2023/07/16 13:39:53;;;;;;;9.65;3.60;;;;;;;40.49;29.15;100153.13;5548035;32;33921;-62
2023/07/16 13:42:57;;;;;;;15.13;4.20;;;;;;;39.29;30.32;100156.44;5548060;32;33681;-62
2023/07/16 13:46:00;;;;;;;8.77;3.50;;;;;;;37.70;33.04;100145.91;5547779;32;34047;-62
2023/07/16 13:49:03;;;;;;;6.35;3.35;;;;;;;38.33;32.82;100156.22;5547855;32;33601;-62
2023/07/16 13:52:06;;;;;;;8.93;3.53;;;;;;;43.02;25.78;100149.00;5534221;32;34432;-62
2023/07/16 13:55:10;;;;;;;9.18;3.55;;;;;;;43.30;25.62;100151.94;5544255;32;34519;-62
2023/07/16 13:58:14;;;;;;;10.98;3.95;;;;;;;44.94;24.29;100153.63;5515103;32;33883;-63
2023/07/16 14:01:18;;;;;;;8.93;3.78;;;;;;;45.54;23.51;100139.38;5528173;32;33495;-62
2023/07/16 14:04:21;;;;;;;6.78;3.53;;;;;;;42.68;26.66;100143.66;5528564;32;34467;-63
2023/07/16 14:07:24;;;;;;;7.55;3.50;;;;;;;44.32;24.82;100137.34;5528544;32;32766;-63